sensor_id;sensor_type;location;lat;lon;timestamp;P1;durP1;ratioP1;P2;durP2;ratioP2
4519;SDS011;2272;49.226;8.108;2023-08-01T00:00:38;7.27;;;4.20;;
4519;SDS011;2272;49.226;8.108;2023-08-01T00:03:05;8.00;;;3.90;;
4519;SDS011;2272;49.226;8.108;2023-08-01T00:05:32;6.37;;;4.33;;
4519;SDS011;2272;49.226;8.108;2023-08-01T00:07:58;4.87;;;3.67;;
4519;SDS011;2272;49.226;8.108;2023-08-01T00:10:27;4.47;;;4.07;;
4519;SDS011;2272;49.226;8.108;2023-08-01T00:12:54;3.60;;;3.30;;
4519;SDS011;2272;49.226;8.108;2023-08-01T00:15:21;6.17;;;4.23;;
4519;SDS011;2272;49.226;8.108;2023-08-01T00:17:49;5.03;;;4.03;;
4519;SDS011;2272;49.226;8.108;2023-08-01T00:20:15;8.93;;;4.40;;
4519;SDS011;2272;49.226;8.108;2023-08-01T00:22:42;5.90;;;4.20;;
4519;SDS011;2272;49.226;8.108;2023-08-01T00:25:09;6.47;;;4.80;;
4519;SDS011;2272;49.226;8.108;2023-08-01T00:27:36;6.30;;;4.10;;
4519;SDS011;2272;49.226;8.108;2023-08-01T00:30:03;6.30;;;4.30;;
4519;SDS011;2272;49.226;8.108;2023-08-01T00:32:30;7.60;;;5.10;;
4519;SDS011;2272;49.226;8.108;2023-08-01T00:34:59;6.23;;;4.93;;
4519;SDS011;2272;49.226;8.108;2023-08-01T00:37:25;7.27;;;4.60;;
4519;SDS011;2272;49.226;8.108;2023-08-01T00:39:52;8.97;;;5.03;;
4519;SDS011;2272;49.226;8.108;2023-08-01T00:42:19;7.13;;;4.67;;
4519;SDS011;2272;49.226;8.108;2023-08-01T00:44:45;4.30;;;3.90;;
4519;SDS011;2272;49.226;8.108;2023-08-01T00:47:14;7.37;;;4.37;;
4519;SDS011;2272;49.226;8.108;2023-08-01T00:49:41;11.40;;;4.73;;
4519;SDS011;2272;49.226;8.108;2023-08-01T00:52:09;5.40;;;3.97;;
4519;SDS011;2272;49.226;8.108;2023-08-01T00:54:36;6.00;;;4.23;;
4519;SDS011;2272;49.226;8.108;2023-08-01T00:57:03;11.97;;;4.43;;
4519;SDS011;2272;49.226;8.108;2023-08-01T00:59:31;5.63;;;4.53;;
4519;SDS011;2272;49.226;8.108;2023-08-01T01:01:58;5.53;;;4.00;;
4519;SDS011;2272;49.226;8.108;2023-08-01T01:04:26;5.93;;;3.60;;
4519;SDS011;2272;49.226;8.108;2023-08-01T01:06:57;7.27;;;4.43;;
4519;SDS011;2272;49.226;8.108;2023-08-01T01:09:29;7.23;;;4.03;;
4519;SDS011;2272;49.226;8.108;2023-08-01T01:11:57;24.43;;;4.13;;
4519;SDS011;2272;49.226;8.108;2023-08-01T01:14:24;4.47;;;3.63;;
4519;SDS011;2272;49.226;8.108;2023-08-01T01:16:51;7.20;;;5.63;;
4519;SDS011;2272;49.226;8.108;2023-08-01T01:19:18;8.33;;;4.33;;
4519;SDS011;2272;49.226;8.108;2023-08-01T01:21:46;6.67;;;4.30;;
4519;SDS011;2272;49.226;8.108;2023-08-01T01:24:14;4.40;;;3.70;;
4519;SDS011;2272;49.226;8.108;2023-08-01T01:26:42;7.27;;;3.80;;
4519;SDS011;2272;49.226;8.108;2023-08-01T01:29:11;6.63;;;4.00;;
4519;SDS011;2272;49.226;8.108;2023-08-01T01:31:38;9.30;;;4.00;;
4519;SDS011;2272;49.226;8.108;2023-08-01T01:34:05;5.57;;;4.17;;
4519;SDS011;2272;49.226;8.108;2023-08-01T01:36:33;5.27;;;3.67;;
4519;SDS011;2272;49.226;8.108;2023-08-01T01:39:01;5.83;;;4.33;;
4519;SDS011;2272;49.226;8.108;2023-08-01T01:41:28;5.23;;;4.17;;
4519;SDS011;2272;49.226;8.108;2023-08-01T01:43:55;4.57;;;3.60;;
4519;SDS011;2272;49.226;8.108;2023-08-01T01:46:22;7.10;;;3.67;;
4519;SDS011;2272;49.226;8.108;2023-08-01T01:48:48;24.57;;;3.83;;
4519;SDS011;2272;49.226;8.108;2023-08-01T01:51:15;14.73;;;4.50;;
4519;SDS011;2272;49.226;8.108;2023-08-01T01:53:42;4.17;;;3.50;;
4519;SDS011;2272;49.226;8.108;2023-08-01T01:56:10;4.20;;;3.10;;
4519;SDS011;2272;49.226;8.108;2023-08-01T01:58:37;5.03;;;4.17;;
4519;SDS011;2272;49.226;8.108;2023-08-01T02:01:03;3.73;;;3.43;;
4519;SDS011;2272;49.226;8.108;2023-08-01T02:03:30;6.60;;;3.97;;
4519;SDS011;2272;49.226;8.108;2023-08-01T02:05:57;7.53;;;4.60;;
4519;SDS011;2272;49.226;8.108;2023-08-01T02:08:24;5.20;;;3.63;;
4519;SDS011;2272;49.226;8.108;2023-08-01T02:10:50;5.47;;;3.70;;
4519;SDS011;2272;49.226;8.108;2023-08-01T02:13:19;7.37;;;4.17;;
4519;SDS011;2272;49.226;8.108;2023-08-01T02:15:45;3.10;;;3.00;;
4519;SDS011;2272;49.226;8.108;2023-08-01T02:18:12;5.37;;;3.70;;
4519;SDS011;2272;49.226;8.108;2023-08-01T02:20:39;5.60;;;3.67;;
4519;SDS011;2272;49.226;8.108;2023-08-01T02:23:06;5.03;;;3.60;;
4519;SDS011;2272;49.226;8.108;2023-08-01T02:25:33;6.40;;;4.17;;
4519;SDS011;2272;49.226;8.108;2023-08-01T02:28:04;7.50;;;4.30;;
4519;SDS011;2272;49.226;8.108;2023-08-01T02:30:33;9.50;;;3.60;;
4519;SDS011;2272;49.226;8.108;2023-08-01T02:32:59;7.33;;;4.27;;
4519;SDS011;2272;49.226;8.108;2023-08-01T02:35:26;10.40;;;4.00;;
4519;SDS011;2272;49.226;8.108;2023-08-01T02:37:54;4.53;;;3.30;;
4519;SDS011;2272;49.226;8.108;2023-08-01T02:40:21;10.90;;;3.80;;
4519;SDS011;2272;49.226;8.108;2023-08-01T02:42:48;4.37;;;3.23;;
4519;SDS011;2272;49.226;8.108;2023-08-01T02:45:14;8.20;;;3.47;;
4519;SDS011;2272;49.226;8.108;2023-08-01T02:47:42;8.43;;;3.57;;
4519;SDS011;2272;49.226;8.108;2023-08-01T02:50:09;4.17;;;3.77;;
4519;SDS011;2272;49.226;8.108;2023-08-01T02:52:36;4.47;;;4.07;;
4519;SDS011;2272;49.226;8.108;2023-08-01T02:55:03;6.77;;;4.07;;
4519;SDS011;2272;49.226;8.108;2023-08-01T02:57:30;12.87;;;4.63;;
4519;SDS011;2272;49.226;8.108;2023-08-01T02:59:57;7.37;;;4.00;;
4519;SDS011;2272;49.226;8.108;2023-08-01T03:02:24;3.90;;;3.50;;
4519;SDS011;2272;49.226;8.108;2023-08-01T03:04:54;4.90;;;3.53;;
4519;SDS011;2272;49.226;8.108;2023-08-01T03:07:20;7.63;;;3.50;;
4519;SDS011;2272;49.226;8.108;2023-08-01T03:09:47;7.80;;;4.03;;
4519;SDS011;2272;49.226;8.108;2023-08-01T03:12:14;4.57;;;3.40;;
4519;SDS011;2272;49.226;8.108;2023-08-01T03:14:40;3.30;;;3.10;;
4519;SDS011;2272;49.226;8.108;2023-08-01T03:17:08;4.00;;;3.20;;
4519;SDS011;2272;49.226;8.108;2023-08-01T03:19:35;4.77;;;3.27;;
4519;SDS011;2272;49.226;8.108;2023-08-01T03:22:03;2.80;;;2.60;;
4519;SDS011;2272;49.226;8.108;2023-08-01T03:24:30;4.10;;;2.77;;
4519;SDS011;2272;49.226;8.108;2023-08-01T03:26:57;5.33;;;3.60;;
4519;SDS011;2272;49.226;8.108;2023-08-01T03:29:24;3.80;;;3.00;;
4519;SDS011;2272;49.226;8.108;2023-08-01T03:31:51;4.10;;;3.40;;
4519;SDS011;2272;49.226;8.108;2023-08-01T03:34:18;5.57;;;3.30;;
4519;SDS011;2272;49.226;8.108;2023-08-01T03:36:45;6.03;;;3.40;;
4519;SDS011;2272;49.226;8.108;2023-08-01T03:39:13;7.07;;;3.30;;
4519;SDS011;2272;49.226;8.108;2023-08-01T03:41:39;3.30;;;3.10;;
4519;SDS011;2272;49.226;8.108;2023-08-01T03:44:06;4.20;;;3.50;;
4519;SDS011;2272;49.226;8.108;2023-08-01T03:46:33;5.33;;;3.20;;
4519;SDS011;2272;49.226;8.108;2023-08-01T03:48:59;5.17;;;3.70;;
4519;SDS011;2272;49.226;8.108;2023-08-01T03:51:26;7.60;;;3.23;;
4519;SDS011;2272;49.226;8.108;2023-08-01T03:53:53;6.30;;;3.20;;
4519;SDS011;2272;49.226;8.108;2023-08-01T03:56:21;3.87;;;2.50;;
4519;SDS011;2272;49.226;8.108;2023-08-01T03:58:48;3.73;;;2.93;;
4519;SDS011;2272;49.226;8.108;2023-08-01T04:01:14;11.73;;;3.10;;
4519;SDS011;2272;49.226;8.108;2023-08-01T04:03:41;5.43;;;3.40;;
4519;SDS011;2272;49.226;8.108;2023-08-01T04:06:08;5.53;;;2.80;;
4519;SDS011;2272;49.226;8.108;2023-08-01T04:08:35;8.47;;;2.90;;
4519;SDS011;2272;49.226;8.108;2023-08-01T04:11:02;4.27;;;3.00;;
4519;SDS011;2272;49.226;8.108;2023-08-01T04:13:30;2.93;;;2.60;;
4519;SDS011;2272;49.226;8.108;2023-08-01T04:15:57;3.50;;;3.10;;
4519;SDS011;2272;49.226;8.108;2023-08-01T04:18:24;3.83;;;3.23;;
4519;SDS011;2272;49.226;8.108;2023-08-01T04:20:50;6.13;;;3.67;;
4519;SDS011;2272;49.226;8.108;2023-08-01T04:23:17;4.90;;;3.20;;
4519;SDS011;2272;49.226;8.108;2023-08-01T04:25:44;3.93;;;3.17;;
4519;SDS011;2272;49.226;8.108;2023-08-01T04:28:11;6.70;;;3.40;;
4519;SDS011;2272;49.226;8.108;2023-08-01T04:30:40;7.23;;;3.20;;
4519;SDS011;2272;49.226;8.108;2023-08-01T04:33:06;4.27;;;3.53;;
4519;SDS011;2272;49.226;8.108;2023-08-01T04:35:33;4.30;;;3.73;;
4519;SDS011;2272;49.226;8.108;2023-08-01T04:38:00;4.83;;;4.40;;
4519;SDS011;2272;49.226;8.108;2023-08-01T04:40:27;12.00;;;5.37;;
4519;SDS011;2272;49.226;8.108;2023-08-01T04:42:53;7.40;;;5.13;;
4519;SDS011;2272;49.226;8.108;2023-08-01T04:45:21;7.90;;;5.83;;
4519;SDS011;2272;49.226;8.108;2023-08-01T04:47:50;12.80;;;6.93;;
4519;SDS011;2272;49.226;8.108;2023-08-01T04:50:17;8.03;;;6.33;;
4519;SDS011;2272;49.226;8.108;2023-08-01T04:52:44;11.90;;;7.33;;
4519;SDS011;2272;49.226;8.108;2023-08-01T04:55:11;6.53;;;5.87;;
4519;SDS011;2272;49.226;8.108;2023-08-01T04:57:37;12.87;;;6.30;;
4519;SDS011;2272;49.226;8.108;2023-08-01T05:00:05;10.13;;;5.80;;
4519;SDS011;2272;49.226;8.108;2023-08-01T05:02:32;9.30;;;7.13;;
4519;SDS011;2272;49.226;8.108;2023-08-01T05:05:01;7.40;;;6.23;;
4519;SDS011;2272;49.226;8.108;2023-08-01T05:07:27;17.57;;;5.97;;
4519;SDS011;2272;49.226;8.108;2023-08-01T05:09:54;7.60;;;6.23;;
4519;SDS011;2272;49.226;8.108;2023-08-01T05:12:21;12.80;;;6.00;;
4519;SDS011;2272;49.226;8.108;2023-08-01T05:14:48;9.63;;;7.00;;
4519;SDS011;2272;49.226;8.108;2023-08-01T05:17:15;7.27;;;5.23;;
4519;SDS011;2272;49.226;8.108;2023-08-01T05:19:42;6.93;;;5.10;;
4519;SDS011;2272;49.226;8.108;2023-08-01T05:22:10;6.67;;;5.73;;
4519;SDS011;2272;49.226;8.108;2023-08-01T05:24:36;7.87;;;6.03;;
4519;SDS011;2272;49.226;8.108;2023-08-01T05:27:03;6.77;;;5.93;;
4519;SDS011;2272;49.226;8.108;2023-08-01T05:29:30;6.93;;;5.30;;
4519;SDS011;2272;49.226;8.108;2023-08-01T05:31:57;5.70;;;5.00;;
4519;SDS011;2272;49.226;8.108;2023-08-01T05:34:24;11.10;;;5.03;;
4519;SDS011;2272;49.226;8.108;2023-08-01T05:36:51;6.73;;;4.87;;
4519;SDS011;2272;49.226;8.108;2023-08-01T05:39:19;6.57;;;4.13;;
4519;SDS011;2272;49.226;8.108;2023-08-01T05:41:46;7.23;;;4.17;;
4519;SDS011;2272;49.226;8.108;2023-08-01T05:44:13;7.77;;;3.87;;
4519;SDS011;2272;49.226;8.108;2023-08-01T05:46:39;10.50;;;3.30;;
4519;SDS011;2272;49.226;8.108;2023-08-01T05:49:06;3.87;;;3.57;;
4519;SDS011;2272;49.226;8.108;2023-08-01T05:51:33;3.53;;;3.27;;
4519;SDS011;2272;49.226;8.108;2023-08-01T05:53:59;4.57;;;3.80;;
4519;SDS011;2272;49.226;8.108;2023-08-01T05:56:28;3.83;;;3.57;;
4519;SDS011;2272;49.226;8.108;2023-08-01T05:58:54;4.83;;;2.93;;
4519;SDS011;2272;49.226;8.108;2023-08-01T06:01:21;3.60;;;3.30;;
4519;SDS011;2272;49.226;8.108;2023-08-01T06:03:48;3.23;;;3.00;;
4519;SDS011;2272;49.226;8.108;2023-08-01T06:06:15;4.20;;;3.33;;
4519;SDS011;2272;49.226;8.108;2023-08-01T06:08:42;3.23;;;2.53;;
4519;SDS011;2272;49.226;8.108;2023-08-01T06:11:08;2.83;;;2.47;;
4519;SDS011;2272;49.226;8.108;2023-08-01T06:13:36;5.57;;;3.00;;
4519;SDS011;2272;49.226;8.108;2023-08-01T06:16:03;2.90;;;1.97;;
4519;SDS011;2272;49.226;8.108;2023-08-01T06:18:30;3.13;;;2.80;;
4519;SDS011;2272;49.226;8.108;2023-08-01T06:20:57;2.80;;;2.10;;
4519;SDS011;2272;49.226;8.108;2023-08-01T06:23:24;3.03;;;2.20;;
4519;SDS011;2272;49.226;8.108;2023-08-01T06:25:50;2.17;;;1.87;;
4519;SDS011;2272;49.226;8.108;2023-08-01T06:28:17;1.80;;;1.60;;
4519;SDS011;2272;49.226;8.108;2023-08-01T06:30:45;1.60;;;1.50;;
4519;SDS011;2272;49.226;8.108;2023-08-01T06:33:12;4.20;;;1.70;;
4519;SDS011;2272;49.226;8.108;2023-08-01T06:35:39;1.60;;;1.60;;
4519;SDS011;2272;49.226;8.108;2023-08-01T06:38:05;2.50;;;2.30;;
4519;SDS011;2272;49.226;8.108;2023-08-01T06:40:32;1.10;;;1.10;;
4519;SDS011;2272;49.226;8.108;2023-08-01T06:42:59;2.37;;;2.20;;
4519;SDS011;2272;49.226;8.108;2023-08-01T06:45:26;1.63;;;1.63;;
4519;SDS011;2272;49.226;8.108;2023-08-01T06:47:54;1.53;;;1.53;;
4519;SDS011;2272;49.226;8.108;2023-08-01T06:50:20;2.00;;;1.90;;
4519;SDS011;2272;49.226;8.108;2023-08-01T06:52:48;4.50;;;1.47;;
4519;SDS011;2272;49.226;8.108;2023-08-01T06:55:15;1.30;;;1.30;;
4519;SDS011;2272;49.226;8.108;2023-08-01T06:57:41;1.60;;;1.50;;
4519;SDS011;2272;49.226;8.108;2023-08-01T07:00:08;1.43;;;1.40;;
4519;SDS011;2272;49.226;8.108;2023-08-01T07:02:36;1.47;;;1.43;;
4519;SDS011;2272;49.226;8.108;2023-08-01T07:05:04;1.37;;;1.27;;
4519;SDS011;2272;49.226;8.108;2023-08-01T07:31:12;2.87;;;1.00;;
4519;SDS011;2272;49.226;8.108;2023-08-01T07:33:38;1.00;;;1.00;;
4519;SDS011;2272;49.226;8.108;2023-08-01T07:36:05;3.73;;;0.70;;
4519;SDS011;2272;49.226;8.108;2023-08-01T07:38:32;1.20;;;1.20;;
4519;SDS011;2272;49.226;8.108;2023-08-01T07:41:01;0.73;;;0.73;;
4519;SDS011;2272;49.226;8.108;2023-08-01T07:43:29;8.23;;;0.90;;
4519;SDS011;2272;49.226;8.108;2023-08-01T07:45:56;0.87;;;0.80;;
4519;SDS011;2272;49.226;8.108;2023-08-01T07:48:24;0.80;;;0.80;;
4519;SDS011;2272;49.226;8.108;2023-08-01T07:50:51;0.70;;;0.70;;
4519;SDS011;2272;49.226;8.108;2023-08-01T07:53:18;0.70;;;0.70;;
4519;SDS011;2272;49.226;8.108;2023-08-01T07:55:45;0.97;;;0.97;;
4519;SDS011;2272;49.226;8.108;2023-08-01T07:58:12;0.87;;;0.80;;
4519;SDS011;2272;49.226;8.108;2023-08-01T08:00:39;1.10;;;0.70;;
4519;SDS011;2272;49.226;8.108;2023-08-01T08:03:06;0.70;;;0.70;;
4519;SDS011;2272;49.226;8.108;2023-08-01T08:05:34;4.40;;;0.70;;
4519;SDS011;2272;49.226;8.108;2023-08-01T08:08:03;0.80;;;0.70;;
4519;SDS011;2272;49.226;8.108;2023-08-01T08:10:31;0.67;;;0.67;;
4519;SDS011;2272;49.226;8.108;2023-08-01T08:12:58;0.60;;;0.60;;
4519;SDS011;2272;49.226;8.108;2023-08-01T08:15:24;0.90;;;0.83;;
4519;SDS011;2272;49.226;8.108;2023-08-01T08:17:51;0.90;;;0.60;;
4519;SDS011;2272;49.226;8.108;2023-08-01T08:20:18;0.73;;;0.73;;
4519;SDS011;2272;49.226;8.108;2023-08-01T08:22:46;0.60;;;0.60;;
4519;SDS011;2272;49.226;8.108;2023-08-01T08:25:13;0.80;;;0.80;;
4519;SDS011;2272;49.226;8.108;2023-08-01T08:27:40;0.80;;;0.80;;
4519;SDS011;2272;49.226;8.108;2023-08-01T08:30:07;0.60;;;0.60;;
4519;SDS011;2272;49.226;8.108;2023-08-01T08:32:35;1.27;;;0.70;;
4519;SDS011;2272;49.226;8.108;2023-08-01T08:35:02;2.10;;;0.70;;
4519;SDS011;2272;49.226;8.108;2023-08-01T08:37:31;2.40;;;1.23;;
4519;SDS011;2272;49.226;8.108;2023-08-01T08:39:59;0.80;;;0.80;;
4519;SDS011;2272;49.226;8.108;2023-08-01T08:42:26;1.80;;;0.80;;
4519;SDS011;2272;49.226;8.108;2023-08-01T08:44:54;1.23;;;1.13;;
4519;SDS011;2272;49.226;8.108;2023-08-01T08:47:22;0.70;;;0.70;;
4519;SDS011;2272;49.226;8.108;2023-08-01T08:49:51;1.27;;;0.80;;
4519;SDS011;2272;49.226;8.108;2023-08-01T08:52:21;0.77;;;0.77;;
4519;SDS011;2272;49.226;8.108;2023-08-01T08:54:47;0.80;;;0.70;;
4519;SDS011;2272;49.226;8.108;2023-08-01T08:57:16;0.90;;;0.77;;
4519;SDS011;2272;49.226;8.108;2023-08-01T08:59:44;0.60;;;0.60;;
4519;SDS011;2272;49.226;8.108;2023-08-01T09:02:12;0.60;;;0.60;;
4519;SDS011;2272;49.226;8.108;2023-08-01T09:04:40;1.80;;;0.70;;
4519;SDS011;2272;49.226;8.108;2023-08-01T09:07:08;0.67;;;0.67;;
4519;SDS011;2272;49.226;8.108;2023-08-01T09:09:36;1.80;;;0.90;;
4519;SDS011;2272;49.226;8.108;2023-08-01T09:12:03;1.43;;;0.80;;
4519;SDS011;2272;49.226;8.108;2023-08-01T09:14:33;0.80;;;0.80;;
4519;SDS011;2272;49.226;8.108;2023-08-01T09:17:05;0.60;;;0.60;;
4519;SDS011;2272;49.226;8.108;2023-08-01T09:19:33;3.17;;;0.90;;
4519;SDS011;2272;49.226;8.108;2023-08-01T09:22:00;1.40;;;1.30;;
4519;SDS011;2272;49.226;8.108;2023-08-01T09:24:27;0.70;;;0.70;;
4519;SDS011;2272;49.226;8.108;2023-08-01T09:27:01;0.63;;;0.63;;
4519;SDS011;2272;49.226;8.108;2023-08-01T09:29:30;0.70;;;0.70;;
4519;SDS011;2272;49.226;8.108;2023-08-01T09:31:59;0.90;;;0.90;;
4519;SDS011;2272;49.226;8.108;2023-08-01T09:34:26;0.70;;;0.70;;
4519;SDS011;2272;49.226;8.108;2023-08-01T09:36:57;1.07;;;0.97;;
4519;SDS011;2272;49.226;8.108;2023-08-01T09:39:26;1.00;;;1.00;;
4519;SDS011;2272;49.226;8.108;2023-08-01T09:41:56;3.80;;;0.87;;
4519;SDS011;2272;49.226;8.108;2023-08-01T09:44:26;1.87;;;1.20;;
4519;SDS011;2272;49.226;8.108;2023-08-01T10:10:16;1.47;;;1.00;;
4519;SDS011;2272;49.226;8.108;2023-08-01T10:12:47;2.57;;;1.00;;
4519;SDS011;2272;49.226;8.108;2023-08-01T10:15:15;0.97;;;0.80;;
4519;SDS011;2272;49.226;8.108;2023-08-01T10:17:44;0.97;;;0.87;;
4519;SDS011;2272;49.226;8.108;2023-08-01T10:20:11;1.30;;;1.20;;
4519;SDS011;2272;49.226;8.108;2023-08-01T10:36:14;1.80;;;1.70;;
4519;SDS011;2272;49.226;8.108;2023-08-01T10:38:46;2.23;;;1.53;;
4519;SDS011;2272;49.226;8.108;2023-08-01T10:41:21;1.67;;;1.37;;
4519;SDS011;2272;49.226;8.108;2023-08-01T10:43:51;2.73;;;1.67;;
4519;SDS011;2272;49.226;8.108;2023-08-01T10:46:18;4.30;;;2.00;;
4519;SDS011;2272;49.226;8.108;2023-08-01T10:48:50;1.73;;;1.63;;
4519;SDS011;2272;49.226;8.108;2023-08-01T10:51:19;2.30;;;1.23;;
4519;SDS011;2272;49.226;8.108;2023-08-01T10:53:46;1.43;;;1.20;;
4519;SDS011;2272;49.226;8.108;2023-08-01T10:56:17;2.60;;;1.40;;
4519;SDS011;2272;49.226;8.108;2023-08-01T10:58:44;1.30;;;1.20;;
4519;SDS011;2272;49.226;8.108;2023-08-01T11:01:11;3.80;;;1.90;;
4519;SDS011;2272;49.226;8.108;2023-08-01T11:03:38;2.63;;;1.37;;
4519;SDS011;2272;49.226;8.108;2023-08-01T11:06:08;8.53;;;1.43;;
4519;SDS011;2272;49.226;8.108;2023-08-01T11:08:35;1.50;;;1.27;;
4519;SDS011;2272;49.226;8.108;2023-08-01T11:11:03;3.53;;;1.60;;
4519;SDS011;2272;49.226;8.108;2023-08-01T11:13:30;2.20;;;2.00;;
4519;SDS011;2272;49.226;8.108;2023-08-01T11:16:00;4.87;;;1.50;;
4519;SDS011;2272;49.226;8.108;2023-08-01T11:18:28;1.63;;;1.40;;
4519;SDS011;2272;49.226;8.108;2023-08-01T11:20:55;1.50;;;1.40;;
4519;SDS011;2272;49.226;8.108;2023-08-01T11:23:28;2.27;;;1.20;;
4519;SDS011;2272;49.226;8.108;2023-08-01T11:25:55;2.73;;;1.60;;
4519;SDS011;2272;49.226;8.108;2023-08-01T11:28:22;1.93;;;1.83;;
4519;SDS011;2272;49.226;8.108;2023-08-01T11:30:49;2.13;;;1.70;;
4519;SDS011;2272;49.226;8.108;2023-08-01T11:33:17;1.90;;;1.70;;
4519;SDS011;2272;49.226;8.108;2023-08-01T11:35:45;1.90;;;1.60;;
4519;SDS011;2272;49.226;8.108;2023-08-01T11:38:12;2.20;;;1.80;;
4519;SDS011;2272;49.226;8.108;2023-08-01T11:40:41;1.53;;;1.30;;
4519;SDS011;2272;49.226;8.108;2023-08-01T11:43:08;1.60;;;1.50;;
4519;SDS011;2272;49.226;8.108;2023-08-01T11:45:35;3.23;;;1.80;;
4519;SDS011;2272;49.226;8.108;2023-08-01T11:48:02;1.20;;;1.20;;
4519;SDS011;2272;49.226;8.108;2023-08-01T11:50:29;1.80;;;1.70;;
4519;SDS011;2272;49.226;8.108;2023-08-01T11:58:10;1.57;;;1.50;;
4519;SDS011;2272;49.226;8.108;2023-08-01T12:00:39;1.93;;;1.70;;
4519;SDS011;2272;49.226;8.108;2023-08-01T12:03:06;2.00;;;1.50;;
4519;SDS011;2272;49.226;8.108;2023-08-01T12:16:41;1.57;;;1.30;;
4519;SDS011;2272;49.226;8.108;2023-08-01T12:19:09;1.73;;;1.60;;
4519;SDS011;2272;49.226;8.108;2023-08-01T12:21:45;2.00;;;1.40;;
4519;SDS011;2272;49.226;8.108;2023-08-01T12:24:20;2.10;;;1.30;;
4519;SDS011;2272;49.226;8.108;2023-08-01T12:26:51;1.47;;;1.37;;
4519;SDS011;2272;49.226;8.108;2023-08-01T12:29:17;1.83;;;1.67;;
4519;SDS011;2272;49.226;8.108;2023-08-01T12:31:46;2.60;;;1.83;;
4519;SDS011;2272;49.226;8.108;2023-08-01T12:34:12;1.63;;;1.53;;
4519;SDS011;2272;49.226;8.108;2023-08-01T12:39:30;1.43;;;1.23;;
4519;SDS011;2272;49.226;8.108;2023-08-01T12:42:00;3.53;;;1.50;;
4519;SDS011;2272;49.226;8.108;2023-08-01T12:44:27;2.40;;;1.97;;
4519;SDS011;2272;49.226;8.108;2023-08-01T12:47:12;1.70;;;1.60;;
4519;SDS011;2272;49.226;8.108;2023-08-01T12:49:39;1.73;;;1.50;;
4519;SDS011;2272;49.226;8.108;2023-08-01T12:52:21;2.00;;;1.50;;
4519;SDS011;2272;49.226;8.108;2023-08-01T12:54:55;4.37;;;2.00;;
4519;SDS011;2272;49.226;8.108;2023-08-01T12:57:25;1.80;;;1.17;;
4519;SDS011;2272;49.226;8.108;2023-08-01T12:59:52;4.67;;;2.43;;
4519;SDS011;2272;49.226;8.108;2023-08-01T13:02:20;1.40;;;1.30;;
4519;SDS011;2272;49.226;8.108;2023-08-01T13:04:46;1.60;;;1.50;;
4519;SDS011;2272;49.226;8.108;2023-08-01T13:07:16;1.80;;;1.40;;
4519;SDS011;2272;49.226;8.108;2023-08-01T13:09:42;3.37;;;1.83;;
4519;SDS011;2272;49.226;8.108;2023-08-01T13:12:09;2.00;;;1.60;;
4519;SDS011;2272;49.226;8.108;2023-08-01T13:14:36;4.07;;;1.70;;
4519;SDS011;2272;49.226;8.108;2023-08-01T13:17:03;3.23;;;1.20;;
4519;SDS011;2272;49.226;8.108;2023-08-01T13:19:37;3.37;;;1.13;;
4519;SDS011;2272;49.226;8.108;2023-08-01T13:22:08;3.30;;;2.00;;
4519;SDS011;2272;49.226;8.108;2023-08-01T13:24:35;1.33;;;1.27;;
4519;SDS011;2272;49.226;8.108;2023-08-01T13:27:04;1.93;;;1.30;;
4519;SDS011;2272;49.226;8.108;2023-08-01T13:29:36;18.63;;;1.83;;
4519;SDS011;2272;49.226;8.108;2023-08-01T13:32:05;1.30;;;1.20;;
4519;SDS011;2272;49.226;8.108;2023-08-01T13:34:32;2.03;;;1.50;;
4519;SDS011;2272;49.226;8.108;2023-08-01T13:37:03;2.63;;;1.13;;
4519;SDS011;2272;49.226;8.108;2023-08-01T13:39:31;4.20;;;1.73;;
4519;SDS011;2272;49.226;8.108;2023-08-01T13:41:58;3.77;;;1.90;;
4519;SDS011;2272;49.226;8.108;2023-08-01T13:44:25;2.20;;;1.97;;
4519;SDS011;2272;49.226;8.108;2023-08-01T13:46:51;1.60;;;1.50;;
4519;SDS011;2272;49.226;8.108;2023-08-01T13:49:18;3.27;;;1.63;;
4519;SDS011;2272;49.226;8.108;2023-08-01T13:51:46;3.07;;;1.87;;
4519;SDS011;2272;49.226;8.108;2023-08-01T13:54:18;2.53;;;1.57;;
4519;SDS011;2272;49.226;8.108;2023-08-01T13:56:45;1.50;;;1.37;;
4519;SDS011;2272;49.226;8.108;2023-08-01T13:59:12;3.80;;;1.30;;
4519;SDS011;2272;49.226;8.108;2023-08-01T14:01:39;2.03;;;1.83;;
4519;SDS011;2272;49.226;8.108;2023-08-01T14:04:06;2.17;;;1.57;;
4519;SDS011;2272;49.226;8.108;2023-08-01T14:06:33;1.70;;;1.60;;
4519;SDS011;2272;49.226;8.108;2023-08-01T14:09:00;3.63;;;1.33;;
4519;SDS011;2272;49.226;8.108;2023-08-01T14:11:29;3.70;;;1.20;;
4519;SDS011;2272;49.226;8.108;2023-08-01T14:13:56;1.73;;;1.57;;
4519;SDS011;2272;49.226;8.108;2023-08-01T14:16:23;1.50;;;1.40;;
4519;SDS011;2272;49.226;8.108;2023-08-01T14:18:50;1.67;;;1.33;;
4519;SDS011;2272;49.226;8.108;2023-08-01T14:21:17;4.17;;;1.43;;
4519;SDS011;2272;49.226;8.108;2023-08-01T14:23:47;1.27;;;1.27;;
4519;SDS011;2272;49.226;8.108;2023-08-01T14:26:16;1.90;;;1.80;;
4519;SDS011;2272;49.226;8.108;2023-08-01T14:28:47;1.40;;;1.30;;
4519;SDS011;2272;49.226;8.108;2023-08-01T14:31:15;3.03;;;1.30;;
4519;SDS011;2272;49.226;8.108;2023-08-01T14:33:42;7.20;;;1.50;;
4519;SDS011;2272;49.226;8.108;2023-08-01T14:36:09;4.30;;;1.83;;
4519;SDS011;2272;49.226;8.108;2023-08-01T14:38:37;4.10;;;1.80;;
4519;SDS011;2272;49.226;8.108;2023-08-01T14:41:04;2.13;;;1.47;;
4519;SDS011;2272;49.226;8.108;2023-08-01T14:43:31;1.77;;;1.40;;
4519;SDS011;2272;49.226;8.108;2023-08-01T14:45:59;1.50;;;1.40;;
4519;SDS011;2272;49.226;8.108;2023-08-01T14:48:26;1.90;;;1.17;;
4519;SDS011;2272;49.226;8.108;2023-08-01T14:50:53;2.30;;;1.50;;
4519;SDS011;2272;49.226;8.108;2023-08-01T14:53:23;8.43;;;2.63;;
4519;SDS011;2272;49.226;8.108;2023-08-01T14:55:57;3.57;;;1.60;;
4519;SDS011;2272;49.226;8.108;2023-08-01T14:58:24;1.13;;;1.03;;
4519;SDS011;2272;49.226;8.108;2023-08-01T15:00:51;2.47;;;1.40;;
4519;SDS011;2272;49.226;8.108;2023-08-01T15:03:19;3.60;;;1.60;;
4519;SDS011;2272;49.226;8.108;2023-08-01T15:05:46;2.73;;;1.40;;
4519;SDS011;2272;49.226;8.108;2023-08-01T15:08:13;2.20;;;1.63;;
4519;SDS011;2272;49.226;8.108;2023-08-01T15:10:42;14.43;;;1.50;;
4519;SDS011;2272;49.226;8.108;2023-08-01T15:13:11;4.73;;;1.50;;
4519;SDS011;2272;49.226;8.108;2023-08-01T15:15:39;4.73;;;1.67;;
4519;SDS011;2272;49.226;8.108;2023-08-01T15:18:07;1.00;;;1.00;;
4519;SDS011;2272;49.226;8.108;2023-08-01T15:20:35;1.87;;;1.67;;
4519;SDS011;2272;49.226;8.108;2023-08-01T15:23:19;5.40;;;1.57;;
4519;SDS011;2272;49.226;8.108;2023-08-01T15:25:53;3.60;;;1.57;;
4519;SDS011;2272;49.226;8.108;2023-08-01T15:28:21;1.87;;;1.73;;
4519;SDS011;2272;49.226;8.108;2023-08-01T15:30:48;1.50;;;1.40;;
4519;SDS011;2272;49.226;8.108;2023-08-01T15:33:18;1.87;;;1.60;;
4519;SDS011;2272;49.226;8.108;2023-08-01T15:35:49;9.27;;;1.67;;
4519;SDS011;2272;49.226;8.108;2023-08-01T15:38:20;3.80;;;1.50;;
4519;SDS011;2272;49.226;8.108;2023-08-01T15:40:48;15.13;;;1.93;;
4519;SDS011;2272;49.226;8.108;2023-08-01T15:43:17;2.97;;;1.80;;
4519;SDS011;2272;49.226;8.108;2023-08-01T15:45:45;5.73;;;1.63;;
4519;SDS011;2272;49.226;8.108;2023-08-01T15:48:12;1.77;;;1.47;;
4519;SDS011;2272;49.226;8.108;2023-08-01T15:50:39;3.80;;;1.33;;
4519;SDS011;2272;49.226;8.108;2023-08-01T15:53:08;3.30;;;1.70;;
4519;SDS011;2272;49.226;8.108;2023-08-01T15:55:53;3.40;;;1.53;;
4519;SDS011;2272;49.226;8.108;2023-08-01T15:58:21;2.60;;;1.73;;
4519;SDS011;2272;49.226;8.108;2023-08-01T16:00:48;7.33;;;1.20;;
4519;SDS011;2272;49.226;8.108;2023-08-01T16:03:14;2.30;;;1.40;;
4519;SDS011;2272;49.226;8.108;2023-08-01T16:05:41;3.03;;;1.87;;
4519;SDS011;2272;49.226;8.108;2023-08-01T16:08:10;4.60;;;2.23;;
4519;SDS011;2272;49.226;8.108;2023-08-01T16:10:39;2.10;;;1.70;;
4519;SDS011;2272;49.226;8.108;2023-08-01T16:13:06;5.53;;;1.70;;
4519;SDS011;2272;49.226;8.108;2023-08-01T16:15:34;6.10;;;2.00;;
4519;SDS011;2272;49.226;8.108;2023-08-01T16:18:02;1.67;;;1.57;;
4519;SDS011;2272;49.226;8.108;2023-08-01T16:20:29;2.93;;;2.10;;
4519;SDS011;2272;49.226;8.108;2023-08-01T16:22:56;4.50;;;1.80;;
4519;SDS011;2272;49.226;8.108;2023-08-01T16:25:24;2.37;;;1.83;;
4519;SDS011;2272;49.226;8.108;2023-08-01T16:27:51;4.80;;;1.70;;
4519;SDS011;2272;49.226;8.108;2023-08-01T16:30:18;2.50;;;2.30;;
4519;SDS011;2272;49.226;8.108;2023-08-01T16:32:45;6.83;;;2.70;;
4519;SDS011;2272;49.226;8.108;2023-08-01T16:35:12;2.70;;;2.00;;
4519;SDS011;2272;49.226;8.108;2023-08-01T16:37:40;4.60;;;2.43;;